TimeMST,TemperatureF,Dew PointF,Humidity,Sea Level PressureIn,VisibilityMPH,Wind Direction,Wind SpeedMPH,Gust SpeedMPH,PrecipitationIn,Events,Conditions,WindDirDegrees,DateUTC
12:16 AM,55.4,12.2,18,29.97,10.0,West,11.5,-,N/A,,Clear,270,2012-11-08 07:16:00
12:35 AM,59.0,12.2,16,29.97,10.0,WNW,13.8,20.7,N/A,,Clear,290,2012-11-08 07:35:00
12:56 AM,55.4,12.2,18,29.96,10.0,West,10.4,-,N/A,,Clear,270,2012-11-08 07:56:00
1:16 AM,59.0,10.4,15,29.96,10.0,West,15.0,18.4,N/A,,Clear,260,2012-11-08 08:16:00
1:35 AM,57.2,10.4,16,29.96,10.0,West,12.7,-,N/A,,Clear,270,2012-11-08 08:35:00
1:56 AM,51.8,14.0,22,29.96,10.0,West,8.1,-,N/A,,Clear,260,2012-11-08 08:56:00
2:16 AM,50.0,14.0,24,29.96,10.0,West,10.4,-,N/A,,Clear,260,2012-11-08 09:16:00
2:36 AM,53.6,12.2,19,29.96,10.0,WSW,9.2,-,N/A,,Clear,250,2012-11-08 09:36:00
2:56 AM,50.0,12.2,22,29.95,10.0,West,9.2,-,N/A,,Clear,260,2012-11-08 09:56:00
3:16 AM,55.4,10.4,17,29.96,10.0,SW,3.5,-,N/A,,Clear,220,2012-11-08 10:16:00
3:36 AM,53.6,14.0,21,29.96,10.0,WSW,5.8,-,N/A,,Clear,250,2012-11-08 10:36:00
3:56 AM,53.6,14.0,21,29.96,10.0,Calm,Calm,-,N/A,,Clear,0,2012-11-08 10:56:00
4:16 AM,57.2,12.2,17,29.96,10.0,NW,4.6,-,N/A,,Clear,320,2012-11-08 11:16:00
4:36 AM,55.4,14.0,20,29.97,10.0,Calm,Calm,-,N/A,,Clear,0,2012-11-08 11:36:00
4:56 AM,53.6,14.0,21,29.96,10.0,ESE,3.5,-,N/A,,Clear,120,2012-11-08 11:56:00
5:49 AM,50.0,14.0,24,29.96,25.0,ESE,9.2,-,N/A,,Scattered Clouds,120,2012-11-08 12:49:00
6:46 AM,42.8,19.4,39,29.97,50.0,SSW,3.5,-,N/A,,Mostly Cloudy,200,2012-11-08 13:46:00
7:47 AM,48.2,17.6,30,29.98,50.0,SW,3.5,-,N/A,,Mostly Cloudy,220,2012-11-08 14:47:00
8:46 AM,50.0,21.2,32,30.02,50.0,North,16.1,-,N/A,,Mostly Cloudy,350,2012-11-08 15:46:00
9:47 AM,50.0,24.8,37,30.03,30.0,NNW,13.8,-,N/A,,Mostly Cloudy,330,2012-11-08 16:47:00
10:47 AM,50.0,26.6,40,30.03,25.0,North,10.4,-,N/A,,Mostly Cloudy,360,2012-11-08 17:47:00
11:49 AM,53.6,24.8,33,29.99,25.0,Variable,4.6,-,N/A,,Mostly Cloudy,0,2012-11-08 18:49:00
12:46 PM,53.6,24.8,33,29.95,30.0,South,3.5,-,N/A,,Mostly Cloudy,190,2012-11-08 19:46:00
1:54 PM,55.4,24.8,31,29.92,30.0,Calm,Calm,-,N/A,,Mostly Cloudy,0,2012-11-08 20:54:00
2:55 PM,55.4,26.6,33,29.90,30.0,Calm,Calm,-,N/A,,Mostly Cloudy,0,2012-11-08 21:55:00
3:47 PM,55.4,28.4,36,29.90,30.0,NE,5.8,-,N/A,,Mostly Cloudy,50,2012-11-08 22:47:00
4:50 PM,50.0,28.4,43,29.90,30.0,North,5.8,-,N/A,,Scattered Clouds,360,2012-11-08 23:50:00
5:50 PM,50.0,30.2,47,29.90,30.0,NE,3.5,-,N/A,,Scattered Clouds,50,2012-11-09 00:50:00
6:47 PM,46.4,30.2,53,29.90,30.0,North,4.6,-,N/A,,Scattered Clouds,360,2012-11-09 01:47:00
7:54 PM,46.4,28.4,50,29.88,30.0,WNW,6.9,-,N/A,,Scattered Clouds,300,2012-11-09 02:54:00
8:49 PM,46.4,28.4,50,29.87,30.0,NW,3.5,-,N/A,,Scattered Clouds,310,2012-11-09 03:49:00
9:48 PM,46.4,28.4,50,29.86,30.0,Calm,Calm,-,N/A,,Scattered Clouds,0,2012-11-09 04:48:00
10:16 PM,42.8,28.4,57,29.85,10.0,Calm,Calm,-,N/A,,Clear,0,2012-11-09 05:16:00
10:36 PM,42.8,28.4,57,29.83,10.0,Calm,Calm,-,N/A,,Clear,0,2012-11-09 05:36:00
10:56 PM,42.8,28.4,57,29.84,10.0,Calm,Calm,-,N/A,,Clear,0,2012-11-09 05:56:00
11:16 PM,42.8,28.4,57,29.83,10.0,Calm,Calm,-,N/A,,Clear,0,2012-11-09 06:16:00
11:36 PM,42.8,28.4,57,29.83,10.0,West,3.5,-,N/A,,Clear,270,2012-11-09 06:36:00
11:56 PM,42.8,28.4,57,29.82,10.0,West,3.5,-,N/A,,Clear,270,2012-11-09 06:56:00